Time;durP1;ratioP1;P1;durP2;ratioP2;P2;SDS_P1;SDS_P2;PMS_P1;PMS_P2;Temp;Humidity;BMP_temperature;BMP_pressure;BME280_temperature;BME280_humidity;BME280_pressure;Samples;Min_cycle;Max_cycle;Signal;HPM_P1;HPM_P2
2022/12/15 00:39:43;;;;;;;19.52;9.88;;;-2.10;77.10;;;;;;5105932;28;20170;-70
2022/12/15 00:42:10;;;;;;;21.07;8.90;;;-2.10;77.00;;;;;;5110988;28;20088;-70
2022/12/15 00:44:37;;;;;;;24.30;10.48;;;-2.10;77.00;;;;;;5098081;28;20343;-70
2022/12/15 00:47:03;;;;;;;19.80;9.48;;;-2.10;77.00;;;;;;5094668;28;20055;-70
2022/12/15 01:22:36;;;;;;;18.23;8.80;;;-2.30;77.30;;;;;;5104604;28;20059;-71
2022/12/15 01:25:04;;;;;;;18.90;9.02;;;-2.30;77.30;;;;;;5101077;28;20243;-71
2022/12/15 01:27:31;;;;;;;18.38;8.35;;;-2.30;77.30;;;;;;5096337;28;20060;-71
2022/12/15 01:29:58;;;;;;;20.40;8.48;;;-2.20;77.30;;;;;;5098980;28;20059;-71
2022/12/15 01:32:25;;;;;;;21.40;8.77;;;-2.20;77.30;;;;;;5110284;28;20051;-71
2022/12/15 01:34:52;;;;;;;16.87;8.67;;;-2.20;77.30;;;;;;5105162;27;20048;-71
2022/12/15 01:37:19;;;;;;;17.77;8.75;;;-2.10;77.20;;;;;;5098476;28;20258;-71
2022/12/15 01:42:32;;;;;;;17.70;8.43;;;-2.20;76.10;;;;;;5104949;28;20040;-71
2022/12/15 01:45:46;;;;;;;17.95;8.57;;;-2.20;76.10;;;;;;5100582;28;20136;-71
2022/12/15 01:48:19;;;;;;;17.97;8.13;;;-2.20;76.20;;;;;;5029048;28;20136;-71
2022/12/15 01:50:53;;;;;;;16.75;8.80;;;-2.30;76.20;;;;;;5045610;28;20281;-71
2022/12/15 01:53:20;;;;;;;16.63;8.07;;;-2.30;76.30;;;;;;5068447;28;20147;-71
2022/12/15 01:55:48;;;;;;;20.38;8.40;;;-2.30;76.30;;;;;;5109617;28;20074;-71
2022/12/15 01:58:17;;;;;;;16.17;8.43;;;-2.30;76.40;;;;;;5108572;28;20135;-71
2022/12/15 02:00:44;;;;;;;18.73;9.00;;;-2.30;76.60;;;;;;5108994;28;20536;-71
2022/12/15 02:03:12;;;;;;;20.73;9.50;;;-2.30;76.70;;;;;;5102087;28;20312;-71
2022/12/15 02:05:41;;;;;;;19.00;8.38;;;-2.30;76.70;;;;;;5109603;28;20052;-71
2022/12/15 02:08:08;;;;;;;16.50;8.48;;;-2.30;77.00;;;;;;5100795;28;20052;-70
2022/12/15 02:10:44;;;;;;;17.55;7.90;;;-2.30;77.10;;;;;;5099065;28;20599;-71
2022/12/15 02:13:19;;;;;;;19.83;8.93;;;-2.30;77.10;;;;;;5104806;28;20588;-71
2022/12/15 02:15:50;;;;;;;17.38;8.35;;;-2.30;77.30;;;;;;5096255;28;20351;-70
2022/12/15 02:18:39;;;;;;;16.85;8.63;;;-2.20;77.40;;;;;;5104730;28;20106;-71
2022/12/15 02:21:14;;;;;;;19.15;8.52;;;-2.20;77.60;;;;;;5101346;28;20525;-71
2022/12/15 02:24:09;;;;;;;18.05;8.80;;;-2.20;77.90;;;;;;5109791;28;20058;-71
2022/12/15 02:27:20;;;;;;;19.70;8.53;;;-2.20;78.00;;;;;;5100680;28;20160;-71
2022/12/15 02:30:17;;;;;;;18.60;8.55;;;-2.20;78.10;;;;;;5105424;28;20277;-71
2022/12/15 02:32:54;;;;;;;16.92;8.63;;;-2.20;78.20;;;;;;5071137;28;20202;-71
2022/12/15 02:35:28;;;;;;;19.17;9.35;;;-2.10;78.40;;;;;;5105971;28;20505;-71
2022/12/15 02:37:55;;;;;;;15.40;8.23;;;-2.20;78.40;;;;;;5110071;28;20052;-71
2022/12/15 02:40:22;;;;;;;17.50;8.60;;;-2.10;78.50;;;;;;5098183;28;20055;-71
2022/12/15 02:42:53;;;;;;;22.20;8.57;;;-2.20;78.50;;;;;;5098340;28;20263;-71
2022/12/15 02:45:29;;;;;;;19.90;9.52;;;-2.10;78.50;;;;;;5101358;28;20047;-71
2022/12/15 02:48:05;;;;;;;20.63;9.52;;;-2.10;78.70;;;;;;5108806;28;20742;-71
2022/12/15 02:51:06;;;;;;;17.20;9.07;;;-2.10;79.10;;;;;;5112523;28;20354;-71
2022/12/15 02:53:58;;;;;;;18.63;8.90;;;-2.10;79.40;;;;;;5112910;27;20047;-71
2022/12/15 02:56:32;;;;;;;17.27;8.35;;;-2.10;79.50;;;;;;5112734;28;20842;-71
2022/12/15 02:59:09;;;;;;;16.08;8.43;;;-2.10;79.40;;;;;;5111131;28;20140;-71
2022/12/15 03:01:43;;;;;;;17.40;8.77;;;-2.10;79.60;;;;;;5105110;28;20052;-71
2022/12/15 03:04:12;;;;;;;18.73;8.63;;;-2.10;79.60;;;;;;5111056;28;20651;-71
2022/12/15 03:06:39;;;;;;;18.70;9.20;;;-2.10;79.60;;;;;;5104002;28;20429;-71
2022/12/15 03:09:06;;;;;;;17.63;8.77;;;-2.10;79.80;;;;;;5079494;28;20317;-71
2022/12/15 03:11:34;;;;;;;17.23;8.15;;;-2.10;80.00;;;;;;5107915;28;20466;-70
2022/12/15 03:14:01;;;;;;;18.35;8.63;;;-2.10;80.00;;;;;;5112327;28;20127;-71
2022/12/15 03:16:27;;;;;;;15.15;8.13;;;-2.10;80.10;;;;;;5107614;28;20044;-71
2022/12/15 03:18:56;;;;;;;17.70;8.40;;;-2.10;80.10;;;;;;5111095;28;20056;-71
2022/12/15 03:21:23;;;;;;;15.38;7.20;;;-2.10;80.20;;;;;;5110866;28;20274;-71
2022/12/15 03:23:49;;;;;;;17.77;7.93;;;-2.10;80.00;;;;;;5111067;28;20097;-71
2022/12/15 03:26:16;;;;;;;16.15;7.80;;;-2.10;80.00;;;;;;5112114;28;20058;-70
2022/12/15 03:28:44;;;;;;;17.38;8.35;;;-2.10;80.00;;;;;;5104350;28;20056;-71
2022/12/15 03:31:10;;;;;;;18.17;8.17;;;-2.10;80.00;;;;;;5104573;28;20055;-71
2022/12/15 03:33:37;;;;;;;16.05;7.80;;;-2.10;80.00;;;;;;5092096;28;20744;-71
2022/12/15 03:36:06;;;;;;;18.90;8.50;;;-2.10;80.00;;;;;;5107228;28;20167;-70
2022/12/15 03:38:33;;;;;;;16.50;8.70;;;-2.10;80.10;;;;;;5112065;28;20054;-71
2022/12/15 03:41:00;;;;;;;18.17;9.00;;;-2.10;80.20;;;;;;5102752;28;20051;-71
2022/12/15 03:43:27;;;;;;;15.40;8.43;;;-2.10;80.50;;;;;;5101566;28;20932;-71
2022/12/15 03:45:54;;;;;;;18.45;8.88;;;-2.10;80.70;;;;;;5101880;28;20752;-71
2022/12/15 03:48:21;;;;;;;17.48;8.35;;;-2.10;80.80;;;;;;5110278;28;20517;-71
2022/12/15 03:50:48;;;;;;;17.73;8.45;;;-2.10;80.80;;;;;;5105260;28;20857;-71
2022/12/15 03:53:17;;;;;;;17.90;8.02;;;-2.10;80.80;;;;;;5095563;28;20052;-71
2022/12/15 03:55:44;;;;;;;16.07;8.00;;;-2.10;80.80;;;;;;5101102;28;20159;-71
2022/12/15 03:58:11;;;;;;;19.58;8.73;;;-2.00;80.80;;;;;;5072844;28;20291;-71
2022/12/15 04:00:38;;;;;;;18.17;8.15;;;-2.10;81.00;;;;;;5105363;28;20044;-71
2022/12/15 04:03:05;;;;;;;17.35;8.32;;;-2.00;81.20;;;;;;5102251;28;20049;-71
2022/12/15 04:05:34;;;;;;;16.15;7.72;;;-2.00;81.30;;;;;;5110703;28;20040;-70
2022/12/15 04:08:01;;;;;;;15.07;7.13;;;-2.00;81.40;;;;;;5101678;28;20058;-71
2022/12/15 04:10:31;;;;;;;18.00;8.20;;;-2.00;81.20;;;;;;5110019;28;20672;-71
2022/12/15 04:12:58;;;;;;;13.80;7.00;;;-2.00;81.20;;;;;;5106927;28;20560;-71
2022/12/15 04:15:25;;;;;;;15.45;7.53;;;-2.10;81.10;;;;;;5103636;28;20064;-70
2022/12/15 04:17:53;;;;;;;16.13;7.47;;;-2.10;81.20;;;;;;5103107;28;20234;-71
2022/12/15 04:20:20;;;;;;;17.20;7.80;;;-2.00;81.20;;;;;;5111086;28;20054;-71
2022/12/15 04:22:48;;;;;;;14.63;7.45;;;-2.00;81.50;;;;;;5103618;28;20339;-71
2022/12/15 05:34:05;;;;;;;15.38;7.60;;;-1.80;81.80;;;;;;5106236;28;20078;-70
2022/12/15 05:36:32;;;;;;;14.20;7.43;;;-1.80;81.90;;;;;;5108153;28;20094;-70
2022/12/15 05:38:59;;;;;;;16.17;7.18;;;-1.80;81.80;;;;;;5106416;28;20522;-70
2022/12/15 05:41:26;;;;;;;17.73;7.37;;;-1.80;81.80;;;;;;5088833;28;20111;-70
2022/12/15 05:43:53;;;;;;;17.08;7.82;;;-1.80;81.80;;;;;;5105800;28;20695;-70
2022/12/15 05:46:20;;;;;;;15.68;7.15;;;-1.90;81.70;;;;;;5105874;28;20074;-70
2022/12/15 05:48:47;;;;;;;18.48;7.22;;;-1.90;81.70;;;;;;5110215;28;20176;-70
2022/12/15 05:51:15;;;;;;;15.32;7.03;;;-1.90;81.70;;;;;;5105675;28;21011;-70
2022/12/15 05:53:42;;;;;;;16.87;7.90;;;-1.90;81.60;;;;;;5110423;28;20592;-70
2022/12/15 05:56:11;;;;;;;18.52;8.45;;;-1.90;81.70;;;;;;5110011;28;20342;-70
2022/12/15 05:58:39;;;;;;;17.05;7.65;;;-1.90;81.70;;;;;;5109913;28;20101;-69
2022/12/15 06:01:08;;;;;;;16.77;8.48;;;-1.90;81.70;;;;;;5108207;28;20051;-70
2022/12/15 06:03:35;;;;;;;17.98;8.70;;;-1.90;81.70;;;;;;5104430;28;20059;-70
2022/12/15 06:06:02;;;;;;;18.73;8.63;;;-2.00;81.80;;;;;;5098571;28;20048;-70
2022/12/15 06:08:32;;;;;;;18.92;9.10;;;-1.90;81.90;;;;;;5086601;28;20840;-70
2022/12/15 06:11:00;;;;;;;17.90;8.43;;;-2.00;81.90;;;;;;5105608;28;20044;-70
2022/12/15 06:13:30;;;;;;;17.73;8.00;;;-1.90;82.00;;;;;;5107934;28;20397;-70
2022/12/15 06:15:58;;;;;;;16.88;8.30;;;-2.00;82.00;;;;;;5107561;28;20528;-70
2022/12/15 06:18:26;;;;;;;17.40;8.60;;;-2.00;82.00;;;;;;5116753;27;20059;-70
2022/12/15 06:20:57;;;;;;;16.90;7.97;;;-2.00;82.00;;;;;;5106615;28;20741;-70
2022/12/15 06:23:24;;;;;;;16.08;7.65;;;-1.90;82.00;;;;;;5098059;28;20123;-70
2022/12/15 06:25:52;;;;;;;15.45;7.78;;;-2.00;82.00;;;;;;5106937;28;20054;-70
2022/12/15 06:28:23;;;;;;;15.25;7.50;;;-2.00;82.10;;;;;;5087853;28;20045;-70
2022/12/15 06:30:52;;;;;;;17.57;8.00;;;-2.00;82.10;;;;;;5105566;28;20996;-70
2022/12/15 06:33:19;;;;;;;13.35;6.70;;;-2.00;82.10;;;;;;5103084;28;20632;-70
2022/12/15 06:35:46;;;;;;;17.52;7.85;;;-2.00;82.20;;;;;;5106531;28;20051;-70
2022/12/15 06:38:13;;;;;;;17.38;7.53;;;-1.90;82.40;;;;;;5106673;27;20056;-70
2022/12/15 06:40:41;;;;;;;14.50;6.70;;;-1.90;82.50;;;;;;5103708;28;20512;-70
2022/12/15 06:43:09;;;;;;;19.90;7.80;;;-1.90;82.60;;;;;;5123087;27;20125;-70
2022/12/15 06:45:36;;;;;;;16.83;8.00;;;-1.90;82.70;;;;;;5105943;27;20312;-70
2022/12/15 06:48:03;;;;;;;20.10;8.55;;;-1.90;82.70;;;;;;5107892;27;20048;-70
2022/12/15 06:50:30;;;;;;;19.05;8.95;;;-1.90;82.70;;;;;;5103152;28;20040;-70
2022/12/15 06:52:59;;;;;;;15.55;7.05;;;-1.90;82.60;;;;;;5102365;28;20056;-70
2022/12/15 06:55:26;;;;;;;16.50;8.30;;;-1.90;82.40;;;;;;5103391;28;20048;-70
2022/12/15 06:57:53;;;;;;;20.95;9.27;;;-1.90;82.50;;;;;;5106800;28;20286;-70
2022/12/15 07:00:21;;;;;;;18.00;8.13;;;-1.90;82.50;;;;;;5101828;28;20135;-70
2022/12/15 07:02:48;;;;;;;18.17;9.18;;;-1.90;82.40;;;;;;5102800;28;20054;-70
2022/12/15 07:05:16;;;;;;;16.02;7.72;;;-1.90;82.50;;;;;;5104802;28;20054;-70
2022/12/15 07:07:42;;;;;;;15.20;7.23;;;-1.90;82.40;;;;;;5101475;28;20044;-70
2022/12/15 07:10:10;;;;;;;18.02;7.60;;;-1.90;82.50;;;;;;5098181;28;20259;-71
2022/12/15 07:12:37;;;;;;;17.85;7.70;;;-1.90;82.70;;;;;;5104194;28;20063;-70
2022/12/15 07:15:06;;;;;;;20.80;7.78;;;-1.90;82.80;;;;;;5100203;28;20182;-70
2022/12/15 07:17:35;;;;;;;15.68;8.15;;;-1.80;82.80;;;;;;5100793;28;20583;-70
2022/12/15 07:20:04;;;;;;;16.60;7.63;;;-1.80;83.00;;;;;;5101016;28;20916;-70
2022/12/15 07:22:31;;;;;;;14.57;7.32;;;-1.80;83.00;;;;;;5104492;28;21153;-71
2022/12/15 07:24:58;;;;;;;15.25;7.63;;;-1.80;83.20;;;;;;5103006;28;20066;-71
2022/12/15 07:27:25;;;;;;;10.90;5.20;;;-1.80;83.10;;;;;;5106621;28;20600;-71
2022/12/15 07:29:52;;;;;;;13.93;7.05;;;-1.80;83.00;;;;;;5102413;28;20049;-70
2022/12/15 07:32:20;;;;;;;19.37;7.77;;;-1.80;83.00;;;;;;5106441;28;20062;-70
2022/12/15 07:34:48;;;;;;;15.55;7.75;;;-1.80;83.00;;;;;;5110030;28;20251;-70
2022/12/15 07:37:16;;;;;;;16.50;7.50;;;-1.80;83.20;;;;;;5104457;28;20129;-70
2022/12/15 07:39:43;;;;;;;15.25;7.13;;;-1.80;83.20;;;;;;5101259;28;20087;-70
2022/12/15 07:42:10;;;;;;;16.23;7.55;;;-1.80;83.50;;;;;;5110096;28;20044;-70
2022/12/15 07:44:37;;;;;;;15.40;7.23;;;-1.70;83.70;;;;;;5110797;28;20842;-70
2022/12/15 07:47:04;;;;;;;15.18;7.30;;;-1.70;83.80;;;;;;5110609;28;21153;-70
2022/12/15 07:49:31;;;;;;;16.98;7.50;;;-1.70;83.80;;;;;;5107112;28;20044;-73
2022/12/15 07:51:59;;;;;;;15.82;7.07;;;-1.60;83.80;;;;;;5109753;28;20056;-73
2022/12/15 07:54:26;;;;;;;13.57;7.05;;;-1.60;83.60;;;;;;5110872;28;20048;-73
2022/12/15 07:56:54;;;;;;;13.10;6.73;;;-1.60;83.50;;;;;;5095704;28;20129;-73
2022/12/15 07:59:22;;;;;;;14.75;7.07;;;-1.60;83.50;;;;;;5110268;28;20826;-73
2022/12/15 08:01:49;;;;;;;17.92;6.90;;;-1.60;83.40;;;;;;5108920;28;20052;-70
2022/12/15 08:04:16;;;;;;;16.40;7.00;;;-1.60;83.40;;;;;;5101083;28;20844;-70
2022/12/15 08:06:43;;;;;;;15.07;7.15;;;-1.60;83.30;;;;;;5103239;28;20055;-70
2022/12/15 08:09:12;;;;;;;14.47;7.20;;;-1.60;83.40;;;;;;5094005;28;20288;-69
2022/12/15 08:11:39;;;;;;;13.88;6.80;;;-1.50;83.40;;;;;;5108637;28;20274;-70
2022/12/15 08:14:06;;;;;;;13.70;6.85;;;-1.60;83.30;;;;;;5108122;28;20063;-70
2022/12/15 08:16:35;;;;;;;14.10;6.82;;;-1.50;83.30;;;;;;5102308;28;20725;-70
2022/12/15 08:19:02;;;;;;;13.77;6.63;;;-1.50;83.30;;;;;;5106099;28;20749;-70
2022/12/15 08:21:30;;;;;;;14.47;6.33;;;-1.50;83.40;;;;;;5106529;28;21144;-70
2022/12/15 08:23:57;;;;;;;13.32;5.97;;;-1.50;83.50;;;;;;5104328;28;20271;-70
2022/12/15 08:26:25;;;;;;;11.73;6.57;;;-1.50;83.40;;;;;;5108298;27;20058;-70
2022/12/15 08:28:52;;;;;;;13.43;6.68;;;-1.50;83.60;;;;;;5105776;27;20079;-70
2022/12/15 08:31:21;;;;;;;17.42;8.25;;;-1.50;83.80;;;;;;5103828;28;20521;-70
2022/12/15 08:33:49;;;;;;;15.77;7.20;;;-1.50;83.70;;;;;;5105492;28;20054;-70
2022/12/15 08:36:18;;;;;;;14.52;6.80;;;-1.50;83.60;;;;;;5119923;27;20393;-71
2022/12/15 08:38:45;;;;;;;13.52;6.68;;;-1.50;83.50;;;;;;5107352;28;20564;-70
2022/12/15 08:41:14;;;;;;;12.45;6.60;;;-1.40;83.50;;;;;;5107816;28;20048;-71
2022/12/15 08:43:43;;;;;;;13.88;6.60;;;-1.40;83.60;;;;;;5105509;28;20052;-71
2022/12/15 08:46:12;;;;;;;12.33;5.53;;;-1.40;83.60;;;;;;5106960;28;20071;-71
2022/12/15 08:48:39;;;;;;;11.57;5.57;;;-1.30;83.70;;;;;;5107446;28;20271;-71
2022/12/15 08:51:06;;;;;;;13.90;6.55;;;-1.40;83.60;;;;;;5107826;28;20052;-71
2022/12/15 08:53:34;;;;;;;15.02;7.07;;;-1.40;83.60;;;;;;5107601;28;20048;-72
2022/12/15 08:56:04;;;;;;;13.80;6.63;;;-1.30;83.50;;;;;;5107905;28;20884;-71
2022/12/15 08:58:31;;;;;;;14.53;7.90;;;-1.30;83.70;;;;;;5105255;28;20201;-71
2022/12/15 09:01:01;;;;;;;20.17;10.15;;;-1.30;83.60;;;;;;5110648;27;20242;-71
2022/12/15 09:03:29;;;;;;;15.85;8.40;;;-1.30;83.60;;;;;;5107476;28;20060;-71
2022/12/15 09:05:56;;;;;;;16.13;7.60;;;-1.30;83.80;;;;;;5108750;28;20102;-71
2022/12/15 09:08:23;;;;;;;14.77;7.05;;;-1.30;84.00;;;;;;5105295;28;20048;-70
2022/12/15 09:10:50;;;;;;;12.53;6.43;;;-1.30;84.00;;;;;;5105575;28;20094;-71
2022/12/15 09:13:17;;;;;;;13.73;6.32;;;-1.30;84.20;;;;;;5106501;28;20258;-72
2022/12/15 09:15:44;;;;;;;12.52;6.72;;;-1.30;84.20;;;;;;5097545;28;20056;-72
2022/12/15 09:18:12;;;;;;;13.55;6.97;;;-1.20;84.20;;;;;;5102248;28;20048;-72
2022/12/15 09:20:39;;;;;;;16.88;7.20;;;-1.20;84.30;;;;;;5104974;28;20048;-72
2022/12/15 09:23:06;;;;;;;14.80;6.43;;;-1.10;84.20;;;;;;5088085;28;20044;-72
2022/12/15 09:25:33;;;;;;;13.13;5.75;;;-1.10;84.20;;;;;;5099812;28;20263;-72
2022/12/15 09:28:00;;;;;;;13.63;6.43;;;-1.10;84.20;;;;;;5095975;28;20056;-70
2022/12/15 09:30:27;;;;;;;13.80;7.15;;;-1.10;84.60;;;;;;5106406;27;20965;-71
2022/12/15 09:32:54;;;;;;;14.63;7.65;;;-1.10;84.70;;;;;;5099945;28;20053;-71
2022/12/15 09:35:22;;;;;;;14.57;7.37;;;-1.00;84.80;;;;;;5106915;28;20062;-71
2022/12/15 09:37:49;;;;;;;17.20;6.97;;;-1.00;84.90;;;;;;5108184;28;20278;-71
2022/12/15 09:40:16;;;;;;;13.10;5.95;;;-0.90;85.00;;;;;;5106712;28;20136;-71
2022/12/15 09:42:48;;;;;;;14.48;7.40;;;-0.90;84.90;;;;;;5109345;28;20056;-71
2022/12/15 09:45:19;;;;;;;16.35;7.80;;;-0.90;85.00;;;;;;5102380;28;20047;-71
2022/12/15 09:47:52;;;;;;;14.93;6.97;;;-0.80;85.10;;;;;;5097066;28;20525;-71
2022/12/15 09:50:27;;;;;;;12.27;6.18;;;-0.70;85.10;;;;;;5098802;28;20251;-71
2022/12/15 09:52:58;;;;;;;12.73;6.40;;;-0.70;85.00;;;;;;5106724;28;20514;-71
2022/12/15 09:55:26;;;;;;;12.13;6.38;;;-0.70;85.20;;;;;;5118150;27;20051;-71
2022/12/15 09:57:55;;;;;;;13.07;6.78;;;-0.60;85.20;;;;;;5107019;28;20128;-71
2022/12/15 10:00:24;;;;;;;12.23;6.50;;;-0.60;85.40;;;;;;5107395;28;20818;-71
2022/12/15 10:03:24;;;;;;;12.98;5.93;;;-0.50;85.40;;;;;;5100599;28;20266;-71
2022/12/15 10:06:05;;;;;;;13.43;7.10;;;-0.40;85.50;;;;;;5080104;28;20048;-71
2022/12/15 10:08:35;;;;;;;13.23;6.50;;;-0.40;85.40;;;;;;5106974;28;20055;-71
2022/12/15 10:11:05;;;;;;;11.80;5.90;;;-0.30;85.40;;;;;;5096511;28;20206;-71
2022/12/15 10:13:42;;;;;;;12.77;6.97;;;-0.30;85.20;;;;;;5095928;28;20058;-71
2022/12/15 10:16:20;;;;;;;12.05;6.10;;;-0.30;85.00;;;;;;5105370;28;20374;-71
2022/12/15 10:18:56;;;;;;;12.23;6.05;;;-0.20;85.00;;;;;;5118882;27;20062;-71
2022/12/15 10:21:27;;;;;;;13.77;6.38;;;-0.20;84.90;;;;;;5100334;28;20054;-70
2022/12/15 10:23:56;;;;;;;12.30;6.13;;;-0.20;85.00;;;;;;5101701;28;20044;-70
2022/12/15 10:26:30;;;;;;;12.30;6.10;;;-0.10;84.90;;;;;;5121749;27;20167;-71
2022/12/15 10:29:13;;;;;;;16.52;7.28;;;-0.10;85.00;;;;;;5102383;28;20283;-71
2022/12/15 10:31:49;;;;;;;13.32;6.50;;;-0.10;85.20;;;;;;5104367;28;20090;-71
2022/12/15 10:34:24;;;;;;;11.60;6.32;;;-0.10;85.10;;;;;;5105558;28;20168;-70
2022/12/15 10:36:53;;;;;;;14.70;6.05;;;0.00;85.20;;;;;;5106566;28;20048;-70
2022/12/15 10:39:22;;;;;;;14.63;6.37;;;0.00;85.30;;;;;;5106333;27;20044;-70
2022/12/15 10:42:12;;;;;;;12.65;6.80;;;0.00;85.20;;;;;;5106701;28;20286;-71
2022/12/15 10:44:41;;;;;;;15.07;6.85;;;0.10;85.20;;;;;;5102745;28;20130;-70
2022/12/15 10:47:17;;;;;;;11.38;5.93;;;0.20;85.10;;;;;;5104446;28;20055;-70
2022/12/15 10:49:45;;;;;;;12.13;6.05;;;0.30;85.00;;;;;;5103543;28;20052;-71
2022/12/15 10:52:24;;;;;;;12.10;5.97;;;0.30;84.90;;;;;;5107171;27;20139;-69
2022/12/15 10:54:52;;;;;;;16.35;6.20;;;0.40;85.00;;;;;;5089525;28;20278;-69
2022/12/15 10:57:22;;;;;;;11.40;6.00;;;0.40;85.00;;;;;;5103769;28;20121;-69
2022/12/15 10:59:49;;;;;;;11.02;6.15;;;0.50;85.10;;;;;;5105886;27;20048;-69
2022/12/15 11:02:31;;;;;;;13.80;6.10;;;0.50;85.10;;;;;;5103330;28;20063;-69
2022/12/15 11:05:00;;;;;;;12.27;6.37;;;0.60;85.20;;;;;;5101908;28;20105;-69
2022/12/15 11:07:34;;;;;;;12.38;6.53;;;0.60;85.40;;;;;;5104641;27;20255;-69
2022/12/15 11:10:08;;;;;;;13.50;6.38;;;0.80;85.30;;;;;;5105671;28;20160;-69
2022/12/15 11:12:52;;;;;;;14.95;6.88;;;0.80;85.10;;;;;;5108228;28;20052;-69
2022/12/15 11:15:44;;;;;;;11.77;6.13;;;0.90;85.00;;;;;;5109129;28;20916;-69
2022/12/15 11:18:18;;;;;;;13.17;6.17;;;1.00;84.70;;;;;;5108835;28;20044;-69
2022/12/15 11:20:50;;;;;;;13.65;6.97;;;1.00;84.60;;;;;;5108904;28;20269;-70
2022/12/15 11:23:26;;;;;;;11.45;6.32;;;1.10;84.50;;;;;;5123666;27;20131;-72
2022/12/15 11:25:58;;;;;;;13.07;6.35;;;1.10;84.40;;;;;;5108338;28;20055;-71
2022/12/15 11:28:42;;;;;;;12.82;6.28;;;1.20;84.20;;;;;;5103964;28;20597;-71
2022/12/15 11:31:20;;;;;;;12.83;5.87;;;1.20;84.00;;;;;;5104561;28;20059;-72
2022/12/15 11:33:47;;;;;;;13.02;6.60;;;1.30;84.00;;;;;;5104105;28;20274;-70
2022/12/15 11:36:25;;;;;;;12.55;6.30;;;1.30;83.90;;;;;;5102685;28;20102;-70
2022/12/15 11:39:00;;;;;;;13.75;6.43;;;1.40;83.90;;;;;;5107197;28;20044;-69
2022/12/15 11:41:36;;;;;;;12.35;6.28;;;1.40;83.70;;;;;;5106660;28;20052;-69
2022/12/15 11:44:24;;;;;;;13.50;6.37;;;1.50;83.70;;;;;;5108810;28;20151;-69
2022/12/15 11:47:00;;;;;;;10.82;5.53;;;1.50;83.70;;;;;;5106523;28;20277;-70
2022/12/15 11:50:16;;;;;;;12.48;5.97;;;1.60;83.70;;;;;;5107266;28;20537;-70
2022/12/15 11:53:07;;;;;;;11.75;5.93;;;1.70;83.50;;;;;;5103768;28;20048;-70
2022/12/15 11:55:45;;;;;;;11.63;5.57;;;1.80;83.20;;;;;;5093878;28;20115;-70
2022/12/15 11:58:40;;;;;;;10.13;5.90;;;1.80;83.00;;;;;;5109064;28;20048;-70
2022/12/15 12:01:20;;;;;;;17.02;6.18;;;1.90;83.10;;;;;;5102142;28;20954;-70
2022/12/15 12:03:57;;;;;;;11.30;5.85;;;2.00;82.90;;;;;;5100953;28;20036;-69
2022/12/15 12:06:33;;;;;;;11.73;5.57;;;2.10;82.90;;;;;;5102996;28;20109;-70
2022/12/15 12:09:16;;;;;;;10.77;5.47;;;2.10;82.90;;;;;;5092783;28;20052;-70
2022/12/15 12:11:50;;;;;;;11.23;5.23;;;2.20;82.70;;;;;;5104190;28;20476;-70
2022/12/15 12:14:26;;;;;;;10.55;5.30;;;2.30;82.50;;;;;;5102648;28;20290;-70
2022/12/15 12:17:09;;;;;;;12.23;5.55;;;2.40;82.40;;;;;;5106900;28;20052;-70
2022/12/15 12:19:41;;;;;;;11.18;5.93;;;2.50;82.10;;;;;;5108157;27;20051;-70
2022/12/15 12:22:15;;;;;;;12.85;5.70;;;2.50;82.00;;;;;;5106196;28;20048;-70
2022/12/15 12:24:47;;;;;;;13.57;5.33;;;2.60;81.80;;;;;;5090396;28;20620;-70
2022/12/15 12:27:23;;;;;;;9.18;4.95;;;2.70;81.80;;;;;;5105581;28;20326;-70
2022/12/15 12:29:53;;;;;;;11.95;5.57;;;2.70;81.70;;;;;;5104377;28;20036;-70
2022/12/15 12:32:30;;;;;;;11.15;5.47;;;2.80;81.30;;;;;;5090582;28;20131;-70
2022/12/15 12:35:03;;;;;;;11.50;5.40;;;2.80;80.90;;;;;;5107147;28;20044;-70
2022/12/15 12:37:36;;;;;;;12.43;5.97;;;2.90;80.70;;;;;;5107750;28;20051;-69
2022/12/15 12:40:15;;;;;;;11.23;5.40;;;2.90;80.40;;;;;;5106756;28;20250;-70
2022/12/15 12:42:51;;;;;;;13.82;6.10;;;3.00;80.20;;;;;;5106872;28;20071;-70
2022/12/15 12:45:21;;;;;;;13.05;5.70;;;3.00;80.00;;;;;;5099772;28;20048;-70
2022/12/15 12:47:52;;;;;;;11.77;5.85;;;3.00;79.70;;;;;;5099926;28;20053;-70
2022/12/15 12:50:22;;;;;;;12.03;6.30;;;3.10;79.70;;;;;;5106537;28;20577;-70
2022/12/15 12:52:51;;;;;;;11.77;6.07;;;3.10;79.60;;;;;;5106565;28;20259;-69
2022/12/15 12:55:26;;;;;;;12.77;6.50;;;3.10;79.50;;;;;;5123957;27;20135;-70
2022/12/15 12:57:55;;;;;;;13.75;6.80;;;3.10;79.40;;;;;;5107329;28;20056;-70
2022/12/15 13:00:27;;;;;;;12.50;6.32;;;3.10;79.40;;;;;;5106450;28;20062;-71
2022/12/15 13:03:15;;;;;;;14.87;7.30;;;3.10;79.20;;;;;;5103633;28;20058;-70
2022/12/15 13:05:44;;;;;;;13.00;6.68;;;3.10;79.00;;;;;;5105498;28;20284;-70
2022/12/15 13:08:43;;;;;;;13.18;6.15;;;3.10;78.90;;;;;;5108364;27;20061;-71
2022/12/15 13:11:56;;;;;;;12.52;6.55;;;3.10;78.70;;;;;;5103248;28;20073;-71
2022/12/15 13:14:47;;;;;;;12.57;6.45;;;3.10;78.70;;;;;;5124369;27;20058;-69
2022/12/15 13:17:25;;;;;;;11.77;6.60;;;3.10;78.70;;;;;;5108578;28;20048;-70
2022/12/15 13:20:21;;;;;;;14.27;6.82;;;3.10;78.70;;;;;;5106487;28;20259;-70
2022/12/15 13:22:49;;;;;;;14.63;7.18;;;3.10;78.50;;;;;;5100729;28;20607;-71
2022/12/15 13:25:46;;;;;;;10.63;6.45;;;3.10;78.50;;;;;;5106695;28;20056;-71
2022/12/15 13:28:27;;;;;;;13.30;7.05;;;3.10;78.30;;;;;;5105906;28;20055;-70
2022/12/15 13:31:42;;;;;;;10.93;5.17;;;3.10;78.40;;;;;;5101843;27;20071;-70
2022/12/15 13:34:27;;;;;;;13.02;6.40;;;3.10;78.40;;;;;;5113921;27;20809;-70
2022/12/15 13:36:59;;;;;;;12.77;6.90;;;3.10;78.60;;;;;;5104283;28;20492;-70
2022/12/15 13:39:57;;;;;;;13.23;7.75;;;3.10;78.70;;;;;;5105135;28;20998;-71
2022/12/15 13:42:35;;;;;;;14.20;7.05;;;3.10;78.70;;;;;;5101404;28;20055;-71
2022/12/15 13:45:35;;;;;;;12.17;6.73;;;3.10;78.70;;;;;;5105200;28;20048;-70
2022/12/15 13:48:13;;;;;;;12.88;7.22;;;3.10;78.80;;;;;;5103477;28;20689;-70
2022/12/15 13:50:48;;;;;;;13.40;7.18;;;3.10;78.80;;;;;;5106019;28;20048;-70
2022/12/15 13:53:20;;;;;;;11.52;6.80;;;3.10;78.80;;;;;;5117593;27;20052;-70
2022/12/15 13:56:05;;;;;;;11.75;7.55;;;3.10;78.90;;;;;;5105818;28;20074;-70
2022/12/15 13:58:41;;;;;;;11.57;7.17;;;3.20;78.70;;;;;;5103112;28;20127;-70
2022/12/15 14:01:20;;;;;;;17.90;7.53;;;3.20;78.60;;;;;;5105609;28;20361;-70
2022/12/15 14:04:11;;;;;;;14.10;7.68;;;3.20;78.60;;;;;;5108715;28;20058;-70
2022/12/15 14:06:45;;;;;;;14.75;7.40;;;3.20;78.50;;;;;;5103255;28;20157;-71
2022/12/15 14:09:15;;;;;;;15.60;7.72;;;3.30;78.40;;;;;;5107066;28;20090;-71
2022/12/15 14:11:44;;;;;;;14.47;7.07;;;3.30;78.40;;;;;;5098324;28;20045;-71
2022/12/15 14:14:19;;;;;;;15.00;7.03;;;3.30;78.40;;;;;;5093533;28;20529;-70
2022/12/15 14:16:52;;;;;;;14.98;7.70;;;3.30;78.40;;;;;;5099024;28;20045;-70
2022/12/15 14:19:19;;;;;;;16.40;7.57;;;3.30;78.40;;;;;;5099241;28;20079;-70
2022/12/15 14:21:52;;;;;;;13.80;7.30;;;3.30;78.50;;;;;;5107559;28;20058;-70
2022/12/15 14:24:28;;;;;;;12.40;7.20;;;3.30;78.50;;;;;;5107273;28;20139;-70
2022/12/15 14:26:56;;;;;;;11.18;7.15;;;3.30;78.40;;;;;;5108410;28;20255;-70
2022/12/15 14:29:23;;;;;;;14.60;7.75;;;3.30;78.30;;;;;;5097735;28;20503;-70
2022/12/15 14:31:54;;;;;;;13.52;7.88;;;3.30;78.20;;;;;;5096228;28;20054;-70
2022/12/15 14:34:26;;;;;;;16.25;8.35;;;3.40;77.80;;;;;;5098148;28;20060;-71
2022/12/15 14:36:58;;;;;;;14.97;8.20;;;3.40;77.70;;;;;;5107752;28;20050;-71
2022/12/15 14:39:29;;;;;;;14.23;8.00;;;3.40;77.50;;;;;;5098116;28;20255;-71
2022/12/15 14:41:57;;;;;;;14.82;7.55;;;3.40;77.50;;;;;;5106772;28;20044;-70
2022/12/15 14:44:31;;;;;;;15.88;8.00;;;3.30;77.70;;;;;;5107672;28;20075;-70
2022/12/15 14:47:00;;;;;;;14.40;7.47;;;3.30;77.50;;;;;;5101754;28;20635;-70
2022/12/15 14:49:31;;;;;;;16.40;8.43;;;3.30;77.60;;;;;;5106701;28;20648;-70
2022/12/15 14:52:04;;;;;;;14.93;7.93;;;3.30;77.60;;;;;;5105990;28;20364;-70
2022/12/15 14:54:34;;;;;;;18.35;7.72;;;3.30;77.50;;;;;;5105638;28;20052;-70
2022/12/15 14:57:11;;;;;;;15.50;7.50;;;3.30;77.40;;;;;;5107281;28;20054;-70
2022/12/15 14:59:41;;;;;;;12.50;7.43;;;3.30;77.20;;;;;;5109610;28;21138;-70
2022/12/15 15:02:15;;;;;;;14.57;8.17;;;3.30;77.20;;;;;;5108644;27;20054;-70
2022/12/15 15:04:42;;;;;;;13.95;8.02;;;3.30;77.00;;;;;;5109329;27;20259;-70
2022/12/15 15:07:17;;;;;;;15.70;7.93;;;3.20;76.70;;;;;;5109897;28;20126;-71
2022/12/15 15:09:45;;;;;;;14.35;7.93;;;3.10;76.70;;;;;;5103853;28;20047;-70
2022/12/15 15:12:18;;;;;;;15.68;8.20;;;3.10;76.70;;;;;;5110080;27;20055;-70
2022/12/15 15:14:47;;;;;;;15.60;7.60;;;3.10;76.80;;;;;;5108367;28;20457;-70
2022/12/15 15:17:24;;;;;;;15.57;8.40;;;3.10;76.80;;;;;;5100961;28;20261;-71
2022/12/15 15:19:54;;;;;;;19.50;8.30;;;3.00;76.90;;;;;;5104392;28;20040;-70
2022/12/15 15:22:47;;;;;;;16.08;8.93;;;3.00;76.90;;;;;;5104045;28;20888;-70
2022/12/15 15:25:29;;;;;;;17.52;8.63;;;2.90;76.80;;;;;;5089670;27;20059;-70
2022/12/15 15:28:21;;;;;;;17.97;9.33;;;2.90;76.90;;;;;;5106080;28;20049;-70
2022/12/15 15:30:50;;;;;;;18.15;9.27;;;2.80;76.90;;;;;;5107103;28;20271;-70